Time;durP1;ratioP1;P1;durP2;ratioP2;P2;SDS_P1;SDS_P2;PMS_P1;PMS_P2;Temp;Humidity;BMP_temperature;BMP_pressure;BME280_temperature;BME280_humidity;BME280_pressure;Samples;Min_cycle;Max_cycle;Signal;HPM_P1;HPM_P2
2023/09/02 00:01:12;;;;;;;;;;;18.30;67.60;;;;;;5030823;28;19942;-65
2023/09/02 00:03:38;;;;;;;;;;;18.30;67.80;;;;;;5030851;28;19949;-66
2023/09/02 00:06:03;;;;;;;;;;;18.40;67.90;;;;;;5030722;28;20328;-65
2023/09/02 00:08:29;;;;;;;;;;;18.40;67.90;;;;;;5030433;28;19913;-66
2023/09/02 00:10:54;;;;;;;;;;;18.40;67.90;;;;;;5030565;28;20399;-66
2023/09/02 00:13:20;;;;;;;;;;;18.40;68.00;;;;;;5030489;28;19916;-65
2023/09/02 00:15:45;;;;;;;;;;;18.50;68.00;;;;;;5030171;28;19909;-65
2023/09/02 00:18:10;;;;;;;;;;;18.50;68.00;;;;;;5030488;28;20011;-65
2023/09/02 00:20:36;;;;;;;;;;;18.50;67.80;;;;;;5030313;28;19961;-66
2023/09/02 00:23:01;;;;;;;;;;;18.40;67.60;;;;;;5031052;28;20026;-66
2023/09/02 00:25:27;;;;;;;;;;;18.40;67.60;;;;;;5030140;28;19956;-65
2023/09/02 00:27:52;;;;;;;;;;;18.40;67.80;;;;;;5030264;28;20007;-65
2023/09/02 00:30:18;;;;;;;;;;;18.40;67.90;;;;;;5030133;28;20191;-65
2023/09/02 00:32:43;;;;;;;;;;;18.40;67.90;;;;;;5030404;28;19924;-65
2023/09/02 00:35:09;;;;;;;;;;;18.40;68.00;;;;;;5030216;28;19956;-65
2023/09/02 00:37:35;;;;;;;;;;;18.50;68.20;;;;;;5030410;28;19913;-66
2023/09/02 00:40:00;;;;;;;;;;;18.50;68.40;;;;;;5030766;28;19963;-66
2023/09/02 00:42:32;;;;;;;;;;;18.60;68.50;;;;;;5030766;28;20751;-66
2023/09/02 00:44:57;;;;;;;;;;;18.70;68.60;;;;;;5029992;28;19917;-66
2023/09/02 00:47:23;;;;;;;;;;;18.70;68.60;;;;;;5029957;28;19913;-66
2023/09/02 00:49:49;;;;;;;;;;;18.80;68.70;;;;;;5029785;28;19943;-66
2023/09/02 00:52:14;;;;;;;;;;;18.90;68.80;;;;;;5030329;28;19917;-66
2023/09/02 00:54:40;;;;;;;;;;;19.00;68.80;;;;;;5029831;28;19909;-67
2023/09/02 00:57:06;;;;;;;;;;;19.00;68.80;;;;;;5030783;28;19947;-66
2023/09/02 00:59:32;;;;;;;;;;;19.10;68.80;;;;;;5030125;28;19910;-66
2023/09/02 01:01:58;;;;;;;;;;;19.20;68.80;;;;;;5030078;28;19924;-66
2023/09/02 01:04:24;;;;;;;;;;;19.20;68.80;;;;;;5029408;28;19909;-66
2023/09/02 01:06:49;;;;;;;;;;;19.30;68.80;;;;;;5030028;28;19970;-66
2023/09/02 01:09:14;;;;;;;;;;;19.30;68.70;;;;;;5030726;28;19916;-66
2023/09/02 01:11:40;;;;;;;;;;;19.40;68.70;;;;;;5033790;28;19921;-67
2023/09/02 01:14:05;;;;;;;;;;;19.40;68.70;;;;;;5034152;28;20608;-66
2023/09/02 01:16:33;;;;;;;;;;;19.50;68.70;;;;;;5033850;28;19957;-66
2023/09/02 01:18:59;;;;;;;;;;;19.50;68.50;;;;;;5033885;28;20002;-66
2023/09/02 01:21:39;;;;;;;;;;;19.60;68.60;;;;;;5033653;28;20369;-65
2023/09/02 01:24:07;;;;;;;;;;;19.70;68.60;;;;;;5033524;28;19996;-65
2023/09/02 01:26:51;;;;;;;;;;;19.70;68.70;;;;;;5033600;28;20369;-65
2023/09/02 01:29:20;;;;;;;;;;;19.80;68.60;;;;;;5033651;28;19936;-65
2023/09/02 01:31:47;;;;;;;;;;;19.80;68.60;;;;;;5033588;28;20373;-65
2023/09/02 01:34:12;;;;;;;;;;;19.90;68.50;;;;;;5033541;28;19916;-66
2023/09/02 01:36:39;;;;;;;;;;;19.90;68.40;;;;;;5033710;28;19917;-66
2023/09/02 01:39:05;;;;;;;;;;;20.00;68.40;;;;;;5033444;28;19960;-66
2023/09/02 01:41:31;;;;;;;;;;;20.10;68.30;;;;;;5033196;28;19924;-66
2023/09/02 01:43:57;;;;;;;;;;;20.10;68.30;;;;;;5033443;28;20361;-65
2023/09/02 01:46:23;;;;;;;;;;;20.10;68.20;;;;;;5033246;28;19917;-66
2023/09/02 01:48:48;;;;;;;;;;;20.20;68.10;;;;;;5033013;28;19917;-65
2023/09/02 01:51:14;;;;;;;;;;;20.20;68.10;;;;;;5033115;28;19925;-66
2023/09/02 01:53:40;;;;;;;;;;;20.20;68.10;;;;;;5033249;28;19914;-65
2023/09/02 01:56:05;;;;;;;;;;;20.20;68.00;;;;;;5033257;28;19960;-65
2023/09/02 01:58:31;;;;;;;;;;;20.20;68.00;;;;;;5032838;28;19939;-66
2023/09/02 02:00:57;;;;;;;;;;;20.30;68.00;;;;;;5032899;28;19960;-65
2023/09/02 02:03:43;;;;;;;;;;;20.30;68.00;;;;;;5032983;28;19910;-66
2023/09/02 02:06:10;;;;;;;;;;;20.30;68.00;;;;;;5032631;28;19987;-66
2023/09/02 02:08:39;;;;;;;;;;;20.30;67.90;;;;;;5032550;28;19913;-66
2023/09/02 02:11:04;;;;;;;;;;;20.30;67.90;;;;;;5032628;28;19929;-66
2023/09/02 02:13:30;;;;;;;;;;;20.30;68.00;;;;;;5032569;28;19932;-66
2023/09/02 02:15:55;;;;;;;;;;;20.40;67.90;;;;;;5032416;28;19996;-66
2023/09/02 02:18:21;;;;;;;;;;;20.40;67.90;;;;;;5032597;28;19909;-66
2023/09/02 02:20:56;;;;;;;;;;;20.50;67.90;;;;;;5031949;28;19958;-66
2023/09/02 02:23:22;;;;;;;;;;;20.50;67.90;;;;;;5032622;28;20364;-66
2023/09/02 02:25:47;;;;;;;;;;;20.50;67.80;;;;;;5032598;28;19915;-66
2023/09/02 02:28:13;;;;;;;;;;;20.50;67.70;;;;;;5032741;28;19959;-65
2023/09/02 02:30:38;;;;;;;;;;;20.50;67.70;;;;;;5032355;28;19924;-66
2023/09/02 02:33:04;;;;;;;;;;;20.50;67.60;;;;;;5032950;28;19944;-66
2023/09/02 02:35:30;;;;;;;;;;;20.40;67.70;;;;;;5032237;28;19992;-66
2023/09/02 02:37:55;;;;;;;;;;;20.40;67.70;;;;;;5032762;28;20365;-66
2023/09/02 02:40:22;;;;;;;;;;;20.40;67.80;;;;;;5032215;28;19992;-66
2023/09/02 02:42:47;;;;;;;;;;;20.40;67.90;;;;;;5032839;28;19921;-66
2023/09/02 02:45:13;;;;;;;;;;;20.50;67.90;;;;;;5032002;28;20280;-67
2023/09/02 02:47:38;;;;;;;;;;;20.50;67.90;;;;;;5032309;28;20379;-66
2023/09/02 02:50:04;;;;;;;;;;;20.50;67.90;;;;;;5031486;28;19928;-66
2023/09/02 02:52:29;;;;;;;;;;;20.60;67.80;;;;;;5032261;28;19917;-66
2023/09/02 02:54:55;;;;;;;;;;;20.60;67.80;;;;;;5032179;28;19931;-65
2023/09/02 02:57:20;;;;;;;;;;;20.60;67.70;;;;;;5032282;28;19925;-66
2023/09/02 02:59:46;;;;;;;;;;;20.60;67.80;;;;;;5031852;28;20003;-65
2023/09/02 03:02:12;;;;;;;;;;;20.60;67.80;;;;;;5032189;28;20320;-66
2023/09/02 03:04:37;;;;;;;;;;;20.60;67.80;;;;;;5031610;28;19944;-66
2023/09/02 03:07:03;;;;;;;;;;;20.70;67.80;;;;;;5030346;28;20294;-66
2023/09/02 03:09:28;;;;;;;;;;;20.70;67.80;;;;;;5031522;28;19937;-66
2023/09/02 03:11:53;;;;;;;;;;;20.70;67.80;;;;;;5032114;28;20376;-66
2023/09/02 03:14:19;;;;;;;;;;;20.70;67.80;;;;;;5031927;28;20361;-66
2023/09/02 03:16:44;;;;;;;;;;;20.70;67.80;;;;;;5031882;28;20363;-66
2023/09/02 03:19:10;;;;;;;;;;;20.70;67.70;;;;;;5031420;28;19954;-65
2023/09/02 03:21:36;;;;;;;;;;;20.80;67.80;;;;;;5031390;28;19970;-65
2023/09/02 03:24:01;;;;;;;;;;;20.80;67.70;;;;;;5031226;28;19916;-66
2023/09/02 03:26:27;;;;;;;;;;;20.70;67.70;;;;;;5031179;28;19925;-67
2023/09/02 03:28:53;;;;;;;;;;;20.80;67.80;;;;;;5031504;28;19916;-66
2023/09/02 03:31:18;;;;;;;;;;;20.70;67.80;;;;;;5031518;28;19967;-66
2023/09/02 03:33:44;;;;;;;;;;;20.80;67.80;;;;;;5028768;28;20010;-66
2023/09/02 03:36:14;;;;;;;;;;;20.80;67.70;;;;;;5031170;28;19923;-66
2023/09/02 03:38:39;;;;;;;;;;;20.80;67.60;;;;;;5030923;28;19971;-66
2023/09/02 03:41:09;;;;;;;;;;;20.80;67.60;;;;;;5030996;28;19922;-66
2023/09/02 03:43:35;;;;;;;;;;;20.80;67.70;;;;;;5030617;28;20361;-67
2023/09/02 03:46:00;;;;;;;;;;;20.80;67.70;;;;;;5031524;28;19909;-66
2023/09/02 03:48:25;;;;;;;;;;;20.80;67.80;;;;;;5031094;28;19913;-66
2023/09/02 03:50:58;;;;;;;;;;;20.90;67.80;;;;;;5030697;28;19971;-64
2023/09/02 03:53:23;;;;;;;;;;;20.90;67.80;;;;;;5030701;28;19920;-64
2023/09/02 03:55:49;;;;;;;;;;;20.90;67.70;;;;;;5030839;28;20381;-65
2023/09/02 03:58:14;;;;;;;;;;;20.90;67.70;;;;;;5030409;28;20057;-66
2023/09/02 04:00:40;;;;;;;;;;;20.90;67.70;;;;;;5030509;28;20350;-64
2023/09/02 04:03:05;;;;;;;;;;;20.90;67.70;;;;;;5030488;28;20388;-65
2023/09/02 04:05:30;;;;;;;;;;;20.90;67.60;;;;;;5030764;28;19913;-65
2023/09/02 04:07:56;;;;;;;;;;;20.90;67.60;;;;;;5030855;28;19925;-65
2023/09/02 04:10:21;;;;;;;;;;;20.90;67.70;;;;;;5030568;28;19917;-65
2023/09/02 04:12:47;;;;;;;;;;;20.90;67.70;;;;;;5030965;28;19913;-65
2023/09/02 04:15:13;;;;;;;;;;;21.00;67.70;;;;;;5029181;28;19960;-65
2023/09/02 04:17:38;;;;;;;;;;;21.00;67.70;;;;;;5030484;28;19917;-65
2023/09/02 04:20:04;;;;;;;;;;;21.00;67.60;;;;;;5030542;28;19913;-65
2023/09/02 04:22:30;;;;;;;;;;;21.00;67.60;;;;;;5030484;28;19913;-66
2023/09/02 04:24:56;;;;;;;;;;;21.00;67.70;;;;;;5030167;28;19928;-66
2023/09/02 04:27:22;;;;;;;;;;;20.90;67.70;;;;;;5030451;28;19924;-65
2023/09/02 04:29:47;;;;;;;;;;;21.00;67.70;;;;;;5030109;28;20296;-66
2023/09/02 04:32:13;;;;;;;;;;;21.00;67.60;;;;;;5030208;28;20011;-66
2023/09/02 04:34:39;;;;;;;;;;;20.90;67.40;;;;;;5029811;28;19917;-66
2023/09/02 04:37:04;;;;;;;;;;;20.90;67.30;;;;;;5030488;28;19968;-65
2023/09/02 04:39:30;;;;;;;;;;;20.80;67.40;;;;;;5030240;28;19996;-66
2023/09/02 04:41:55;;;;;;;;;;;20.80;67.50;;;;;;5030363;28;19914;-66
2023/09/02 04:44:20;;;;;;;;;;;20.80;67.70;;;;;;5030054;28;20285;-65
2023/09/02 04:46:46;;;;;;;;;;;20.80;67.90;;;;;;5030051;28;19921;-65
2023/09/02 04:49:11;;;;;;;;;;;20.80;67.90;;;;;;5030109;28;19920;-66
2023/09/02 04:51:37;;;;;;;;;;;20.80;68.00;;;;;;5030049;28;19928;-66
2023/09/02 04:54:02;;;;;;;;;;;20.90;68.00;;;;;;5029744;28;19913;-66
2023/09/02 04:56:28;;;;;;;;;;;20.90;68.10;;;;;;5029929;28;20357;-65
2023/09/02 04:58:55;;;;;;;;;;;20.90;68.10;;;;;;5029923;28;19913;-65
2023/09/02 05:01:22;;;;;;;;;;;21.00;68.10;;;;;;5029833;28;19917;-65
2023/09/02 05:03:48;;;;;;;;;;;21.10;68.00;;;;;;5029474;28;19913;-66
2023/09/02 05:06:13;;;;;;;;;;;21.10;68.10;;;;;;5030337;28;19923;-65
2023/09/02 05:08:41;;;;;;;;;;;21.10;68.00;;;;;;5029409;28;20372;-65
2023/09/02 05:11:07;;;;;;;;;;;21.20;68.00;;;;;;5029511;28;19928;-65
2023/09/02 05:13:32;;;;;;;;;;;21.20;68.00;;;;;;5029362;28;19913;-65
2023/09/02 05:15:58;;;;;;;;;;;21.30;68.10;;;;;;5028353;28;20393;-65
2023/09/02 05:18:23;;;;;;;;;;;21.30;68.10;;;;;;5029606;28;19915;-66
2023/09/02 05:20:49;;;;;;;;;;;21.30;68.00;;;;;;5029552;28;19909;-66
2023/09/02 05:23:14;;;;;;;;;;;21.40;68.10;;;;;;5029975;28;19959;-65
2023/09/02 05:25:40;;;;;;;;;;;21.40;68.10;;;;;;5029927;28;19952;-65
2023/09/02 05:28:05;;;;;;;;;;;21.50;68.10;;;;;;5029674;28;19917;-65
2023/09/02 05:30:35;;;;;;;;;;;21.60;68.10;;;;;;5029287;28;19957;-66
2023/09/02 05:33:01;;;;;;;;;;;21.60;68.00;;;;;;5030101;28;19956;-65
2023/09/02 05:35:26;;;;;;;;;;;21.70;68.00;;;;;;5029735;28;19952;-65
2023/09/02 05:37:51;;;;;;;;;;;21.70;67.80;;;;;;5030098;28;19917;-65
2023/09/02 05:40:17;;;;;;;;;;;21.70;67.80;;;;;;5029859;28;19958;-66
2023/09/02 05:42:43;;;;;;;;;;;21.70;67.80;;;;;;5028271;28;19974;-65
2023/09/02 05:45:08;;;;;;;;;;;21.70;67.70;;;;;;5029637;28;19984;-65
2023/09/02 05:47:34;;;;;;;;;;;21.70;67.70;;;;;;5029832;28;20011;-65
2023/09/02 05:50:00;;;;;;;;;;;21.70;67.70;;;;;;5028931;28;19914;-65
2023/09/02 05:52:26;;;;;;;;;;;21.80;67.80;;;;;;5029907;28;19918;-66
2023/09/02 05:54:51;;;;;;;;;;;21.80;67.90;;;;;;5029654;28;20383;-65
2023/09/02 05:57:17;;;;;;;;;;;21.80;67.90;;;;;;5032146;28;19921;-65
2023/09/02 05:59:44;;;;;;;;;;;21.80;67.80;;;;;;5033002;28;19933;-66
2023/09/02 06:02:09;;;;;;;;;;;21.90;67.70;;;;;;5033283;28;20296;-65
2023/09/02 06:04:35;;;;;;;;;;;21.90;67.70;;;;;;5033052;28;19988;-66
2023/09/02 06:07:00;;;;;;;;;;;22.00;67.70;;;;;;5032924;28;19959;-66
2023/09/02 06:09:27;;;;;;;;;;;22.00;67.60;;;;;;5033151;28;19919;-66
2023/09/02 06:11:52;;;;;;;;;;;22.10;67.80;;;;;;5033381;28;19921;-66
2023/09/02 06:14:17;;;;;;;;;;;22.20;67.60;;;;;;5032771;28;19917;-66
2023/09/02 06:16:43;;;;;;;;;;;22.20;67.60;;;;;;5032751;28;19971;-67
2023/09/02 06:19:08;;;;;;;;;;;22.30;67.50;;;;;;5032792;28;19909;-67
2023/09/02 06:21:34;;;;;;;;;;;22.30;67.40;;;;;;5031555;28;19917;-67
2023/09/02 06:23:59;;;;;;;;;;;22.30;67.50;;;;;;5032713;28;19932;-67
2023/09/02 06:26:25;;;;;;;;;;;22.30;67.20;;;;;;5032816;28;19925;-67
2023/09/02 06:28:51;;;;;;;;;;;22.30;67.00;;;;;;5032650;28;20237;-67
2023/09/02 06:31:16;;;;;;;;;;;22.40;66.80;;;;;;5032627;28;19925;-65
2023/09/02 06:33:42;;;;;;;;;;;22.40;66.80;;;;;;5032659;28;20029;-67
2023/09/02 06:36:11;;;;;;;;;;;22.40;66.70;;;;;;5032959;28;20003;-67
2023/09/02 06:38:37;;;;;;;;;;;22.50;66.90;;;;;;5032322;28;19994;-66
2023/09/02 06:41:09;;;;;;;;;;;22.60;66.80;;;;;;5032742;28;19949;-67
2023/09/02 06:43:34;;;;;;;;;;;22.60;66.60;;;;;;5031933;28;19920;-67
2023/09/02 06:46:07;;;;;;;;;;;22.70;66.70;;;;;;5032414;28;19909;-67
2023/09/02 06:48:32;;;;;;;;;;;22.80;66.50;;;;;;5032521;28;19919;-67
2023/09/02 06:50:58;;;;;;;;;;;22.80;66.20;;;;;;5031934;28;19946;-67
2023/09/02 06:53:23;;;;;;;;;;;22.90;66.10;;;;;;5032103;28;19967;-67
2023/09/02 06:55:49;;;;;;;;;;;23.00;66.00;;;;;;5030569;28;19909;-67
2023/09/02 06:58:14;;;;;;;;;;;23.00;65.90;;;;;;5032114;28;19913;-67
2023/09/02 07:00:40;;;;;;;;;;;23.10;66.30;;;;;;5032020;28;19909;-67
2023/09/02 07:03:05;;;;;;;;;;;23.20;66.40;;;;;;5032041;28;19917;-67
2023/09/02 07:05:30;;;;;;;;;;;23.30;65.50;;;;;;5031940;28;19917;-67
2023/09/02 07:07:56;;;;;;;;;;;23.30;65.60;;;;;;5032191;28;20213;-67
2023/09/02 07:10:21;;;;;;;;;;;23.40;65.30;;;;;;5031732;28;19924;-67
2023/09/02 07:12:50;;;;;;;;;;;23.50;65.50;;;;;;5032025;28;19921;-67
2023/09/02 07:15:15;;;;;;;;;;;23.70;65.30;;;;;;5032047;28;19921;-67
2023/09/02 07:17:41;;;;;;;;;;;23.70;64.80;;;;;;5032358;28;19913;-67
2023/09/02 07:20:06;;;;;;;;;;;23.80;64.60;;;;;;5032034;28;19952;-67
2023/09/02 07:22:34;;;;;;;;;;;23.80;64.50;;;;;;5031613;28;20763;-67
2023/09/02 07:24:59;;;;;;;;;;;23.90;64.00;;;;;;5031535;28;19913;-65
2023/09/02 07:27:25;;;;;;;;;;;23.90;63.80;;;;;;5031474;28;19947;-68
2023/09/02 07:29:50;;;;;;;;;;;24.00;64.10;;;;;;5031086;28;20400;-66
2023/09/02 07:32:16;;;;;;;;;;;24.20;64.40;;;;;;5031621;28;20396;-66
2023/09/02 07:34:41;;;;;;;;;;;24.20;63.60;;;;;;5031519;28;20333;-66
2023/09/02 07:37:07;;;;;;;;;;;24.20;63.00;;;;;;5030943;28;20013;-66
2023/09/02 07:39:32;;;;;;;;;;;24.20;62.60;;;;;;5030932;28;19917;-66
2023/09/02 07:41:58;;;;;;;;;;;24.20;62.70;;;;;;5031371;28;20015;-66
2023/09/02 07:44:23;;;;;;;;;;;24.20;62.60;;;;;;5031177;28;19913;-66
2023/09/02 07:46:50;;;;;;;;;;;24.20;62.80;;;;;;5031252;28;19913;-67
2023/09/02 07:49:16;;;;;;;;;;;24.20;62.80;;;;;;5031370;28;19913;-67
2023/09/02 07:51:43;;;;;;;;;;;24.30;62.50;;;;;;5030995;28;19921;-68
2023/09/02 07:54:09;;;;;;;;;;;24.30;62.20;;;;;;5030707;28;20327;-67
2023/09/02 07:56:34;;;;;;;;;;;24.40;62.50;;;;;;5030688;28;19943;-67
2023/09/02 07:59:00;;;;;;;;;;;24.50;63.00;;;;;;5031077;28;19968;-67
2023/09/02 08:01:25;;;;;;;;;;;24.70;63.10;;;;;;5030995;28;20373;-67
2023/09/02 08:03:51;;;;;;;;;;;24.80;62.90;;;;;;5029497;28;19913;-67
2023/09/02 08:06:16;;;;;;;;;;;24.80;62.60;;;;;;5031474;28;19921;-67
2023/09/02 08:08:42;;;;;;;;;;;24.80;62.10;;;;;;5030829;28;19959;-67
2023/09/02 08:11:07;;;;;;;;;;;24.80;61.80;;;;;;5030702;28;19957;-67
2023/09/02 08:13:33;;;;;;;;;;;24.80;61.70;;;;;;5030797;28;20395;-67
2023/09/02 08:16:02;;;;;;;;;;;25.00;61.90;;;;;;5029003;28;19909;-67
2023/09/02 08:18:28;;;;;;;;;;;25.10;61.80;;;;;;5030417;28;19916;-67
2023/09/02 08:20:53;;;;;;;;;;;25.30;61.10;;;;;;5030215;28;19909;-67
2023/09/02 08:23:19;;;;;;;;;;;25.30;61.00;;;;;;5030940;28;19913;-67
2023/09/02 08:25:44;;;;;;;;;;;25.40;60.70;;;;;;5030371;28;19909;-67
2023/09/02 08:28:10;;;;;;;;;;;25.50;60.60;;;;;;5030711;28;19909;-67
2023/09/02 08:30:38;;;;;;;;;;;25.50;60.10;;;;;;5030407;28;19913;-67
2023/09/02 08:33:04;;;;;;;;;;;25.50;60.20;;;;;;5030825;28;19925;-67
2023/09/02 08:35:33;;;;;;;;;;;25.60;60.20;;;;;;5030438;28;19944;-67
2023/09/02 08:37:59;;;;;;;;;;;25.70;60.30;;;;;;5030794;28;19921;-67
2023/09/02 08:40:24;;;;;;;;;;;25.80;60.40;;;;;;5030298;28;20419;-68
2023/09/02 08:42:50;;;;;;;;;;;25.80;60.10;;;;;;5031035;28;20329;-67
2023/09/02 08:45:18;;;;;;;;;;;25.80;60.00;;;;;;5030151;28;20266;-67
2023/09/02 08:47:44;;;;;;;;;;;25.80;59.70;;;;;;5029131;28;19928;-67
2023/09/02 08:50:10;;;;;;;;;;;25.80;59.80;;;;;;5029607;28;19956;-67
2023/09/02 08:52:36;;;;;;;;;;;25.90;59.50;;;;;;5030466;28;20014;-67
2023/09/02 08:55:02;;;;;;;;;;;25.90;59.50;;;;;;5030317;28;20357;-67
2023/09/02 08:57:27;;;;;;;;;;;26.00;59.10;;;;;;5030369;28;19987;-67
2023/09/02 08:59:53;;;;;;;;;;;26.00;59.40;;;;;;5030383;28;19948;-67
2023/09/02 09:02:19;;;;;;;;;;;26.10;59.70;;;;;;5030460;28;19971;-67
2023/09/02 09:04:48;;;;;;;;;;;26.30;59.80;;;;;;5030000;28;19913;-68
2023/09/02 09:07:16;;;;;;;;;;;26.40;59.50;;;;;;5029979;28;19923;-67
2023/09/02 09:09:42;;;;;;;;;;;26.50;58.80;;;;;;5030180;28;19996;-67
2023/09/02 09:12:08;;;;;;;;;;;26.70;59.00;;;;;;5030167;28;20027;-67
2023/09/02 09:14:37;;;;;;;;;;;26.90;58.50;;;;;;5028542;28;19913;-67
2023/09/02 09:17:03;;;;;;;;;;;27.10;58.30;;;;;;5030225;28;20332;-67
2023/09/02 09:19:28;;;;;;;;;;;27.20;58.10;;;;;;5030098;28;19909;-67
2023/09/02 09:21:55;;;;;;;;;;;27.40;57.90;;;;;;5030245;28;20015;-66
2023/09/02 09:24:20;;;;;;;;;;;27.50;57.40;;;;;;5029713;28;19909;-66
2023/09/02 09:26:47;;;;;;;;;;;27.70;57.90;;;;;;5029509;28;20338;-67
2023/09/02 09:29:14;;;;;;;;;;;28.10;58.60;;;;;;5029669;28;19920;-66
2023/09/02 09:31:39;;;;;;;;;;;28.40;58.00;;;;;;5030781;28;19964;-66
2023/09/02 09:34:06;;;;;;;;;;;28.80;56.50;;;;;;5028201;28;19959;-66
2023/09/02 09:36:32;;;;;;;;;;;29.00;55.30;;;;;;5024202;28;19944;-66
2023/09/02 09:38:59;;;;;;;;;;;29.20;54.90;;;;;;5022898;28;19960;-67
2023/09/02 09:41:25;;;;;;;;;;;29.30;54.30;;;;;;5021598;28;19917;-67
2023/09/02 09:44:07;;;;;;;;;;;29.70;53.60;;;;;;5023828;28;19909;-66
2023/09/02 09:46:36;;;;;;;;;;;30.20;54.50;;;;;;5024254;28;19918;-66
2023/09/02 09:49:02;;;;;;;;;;;30.80;53.30;;;;;;5022911;28;19909;-67
2023/09/02 09:51:27;;;;;;;;;;;31.30;53.10;;;;;;5023602;28;20032;-66
2023/09/02 09:53:53;;;;;;;;;;;31.80;52.40;;;;;;5033233;28;20480;-65
2023/09/02 09:56:19;;;;;;;;;;;32.30;52.20;;;;;;5033177;28;19928;-66
2023/09/02 09:58:45;;;;;;;;;;;32.80;50.90;;;;;;5032837;28;19913;-66
2023/09/02 10:01:11;;;;;;;;;;;33.00;48.90;;;;;;5033022;28;19917;-66
2023/09/02 10:03:37;;;;;;;;;;;33.20;47.20;;;;;;5033063;28;19916;-66
2023/09/02 10:06:03;;;;;;;;;;;33.30;47.00;;;;;;5032930;28;20310;-67
2023/09/02 10:08:47;;;;;;;;;;;33.30;46.10;;;;;;5033135;28;20436;-66
2023/09/02 10:11:21;;;;;;;;;;;33.40;45.40;;;;;;5032867;28;19928;-65
2023/09/02 10:13:48;;;;;;;;;;;33.30;44.50;;;;;;5032989;28;19921;-66
2023/09/02 10:16:14;;;;;;;;;;;33.20;44.10;;;;;;5032564;28;19913;-67
2023/09/02 10:18:40;;;;;;;;;;;33.20;43.70;;;;;;5032901;28;19924;-66
2023/09/02 10:21:06;;;;;;;;;;;33.10;43.60;;;;;;5032690;28;20372;-67
2023/09/02 10:23:32;;;;;;;;;;;33.10;43.40;;;;;;5033049;28;20369;-65
2023/09/02 10:26:06;;;;;;;;;;;33.30;43.90;;;;;;5032472;28;19984;-66
2023/09/02 10:28:40;;;;;;;;;;;33.30;43.80;;;;;;5032959;28;19917;-66
2023/09/02 10:31:08;;;;;;;;;;;33.30;43.10;;;;;;5032576;28;19921;-66
2023/09/02 10:33:52;;;;;;;;;;;33.30;43.30;;;;;;5032552;28;19917;-67
2023/09/02 10:36:21;;;;;;;;;;;33.30;43.40;;;;;;5032088;28;19910;-66
2023/09/02 10:38:48;;;;;;;;;;;33.20;43.30;;;;;;5032527;28;20420;-65
2023/09/02 10:41:14;;;;;;;;;;;33.10;42.90;;;;;;5032254;28;19909;-66
2023/09/02 10:43:41;;;;;;;;;;;33.00;42.80;;;;;;5031982;28;20384;-66
2023/09/02 10:46:09;;;;;;;;;;;32.90;42.60;;;;;;5032428;28;20212;-66
2023/09/02 10:48:40;;;;;;;;;;;32.80;42.90;;;;;;5032183;28;19917;-66
2023/09/02 10:51:07;;;;;;;;;;;33.00;43.50;;;;;;5032277;28;19923;-66
2023/09/02 10:53:47;;;;;;;;;;;33.50;43.80;;;;;;5032273;28;19924;-66
2023/09/02 10:56:23;;;;;;;;;;;34.00;43.00;;;;;;5032187;28;19956;-67
2023/09/02 10:58:48;;;;;;;;;;;34.70;43.20;;;;;;5031926;28;19917;-66
2023/09/02 11:01:14;;;;;;;;;;;35.40;42.10;;;;;;5031884;28;19913;-65
2023/09/02 11:03:44;;;;;;;;;;;35.70;40.00;;;;;;5032044;28;20323;-66
2023/09/02 11:06:12;;;;;;;;;;;35.80;38.20;;;;;;5032277;28;19909;-66
2023/09/02 11:08:49;;;;;;;;;;;35.80;38.30;;;;;;5031814;28;19917;-66
2023/09/02 11:11:15;;;;;;;;;;;36.00;37.20;;;;;;5031741;28;19960;-66
2023/09/02 11:13:59;;;;;;;;;;;36.00;37.30;;;;;;5032124;28;19917;-66
2023/09/02 11:16:24;;;;;;;;;;;36.00;37.30;;;;;;5031601;28;19916;-66
2023/09/02 11:18:49;;;;;;;;;;;35.80;36.90;;;;;;5031763;28;20324;-66
2023/09/02 11:21:33;;;;;;;;;;;35.70;37.30;;;;;;5031628;28;20047;-66
2023/09/02 11:24:17;;;;;;;;;;;35.60;37.70;;;;;;5031914;28;19917;-66
2023/09/02 11:26:53;;;;;;;;;;;35.40;37.20;;;;;;5031365;28;19913;-67
2023/09/02 11:29:26;;;;;;;;;;;35.20;36.10;;;;;;5031293;28;20380;-67
2023/09/02 11:32:02;;;;;;;;;;;34.70;36.40;;;;;;5031270;28;19923;-66
2023/09/02 11:34:29;;;;;;;;;;;34.50;37.20;;;;;;5031475;28;20349;-67
2023/09/02 11:36:56;;;;;;;;;;;34.30;37.20;;;;;;5031276;28;20397;-65
2023/09/02 11:39:25;;;;;;;;;;;34.20;37.30;;;;;;5031532;28;19924;-66
2023/09/02 11:42:11;;;;;;;;;;;33.80;37.20;;;;;;5031291;28;19909;-66
2023/09/02 11:44:36;;;;;;;;;;;33.60;37.80;;;;;;5030682;28;20039;-66
2023/09/02 11:47:02;;;;;;;;;;;33.30;37.80;;;;;;5031052;28;20000;-66
2023/09/02 11:49:28;;;;;;;;;;;33.00;38.00;;;;;;5030991;28;19925;-66
2023/09/02 11:51:54;;;;;;;;;;;32.80;38.60;;;;;;5031353;28;19939;-66
2023/09/02 11:54:19;;;;;;;;;;;32.80;39.20;;;;;;5030445;28;20392;-66
2023/09/02 11:56:57;;;;;;;;;;;32.70;39.80;;;;;;5031020;28;19963;-66
2023/09/02 11:59:23;;;;;;;;;;;32.80;40.00;;;;;;5031064;28;19924;-67
2023/09/02 12:02:07;;;;;;;;;;;32.80;40.10;;;;;;5030743;28;19909;-66
2023/09/02 12:04:34;;;;;;;;;;;32.80;39.80;;;;;;5029418;28;20274;-66
2023/09/02 12:07:00;;;;;;;;;;;32.70;39.90;;;;;;5031029;28;20016;-66
2023/09/02 12:09:25;;;;;;;;;;;32.60;40.20;;;;;;5030747;28;19917;-66
2023/09/02 12:11:53;;;;;;;;;;;32.50;40.20;;;;;;5030717;28;20361;-66
2023/09/02 12:14:19;;;;;;;;;;;32.60;40.00;;;;;;5031018;28;19928;-66
2023/09/02 12:16:45;;;;;;;;;;;32.70;40.20;;;;;;5030616;28;20364;-66
2023/09/02 12:19:11;;;;;;;;;;;32.80;40.00;;;;;;5030838;28;19917;-66
2023/09/02 12:21:37;;;;;;;;;;;33.00;40.00;;;;;;5029947;28;19936;-66
2023/09/02 12:24:02;;;;;;;;;;;33.30;40.30;;;;;;5030663;28;19946;-66
2023/09/02 12:26:28;;;;;;;;;;;33.40;39.30;;;;;;5030253;28;19909;-66
2023/09/02 12:28:53;;;;;;;;;;;33.40;38.60;;;;;;5030615;28;20311;-66
2023/09/02 12:31:20;;;;;;;;;;;33.50;38.90;;;;;;5030253;28;19913;-66
2023/09/02 12:33:50;;;;;;;;;;;33.60;38.80;;;;;;5030302;28;19917;-66
2023/09/02 12:36:15;;;;;;;;;;;33.70;38.60;;;;;;5028863;28;19991;-67
2023/09/02 12:38:48;;;;;;;;;;;33.80;38.70;;;;;;5030229;28;20343;-66
2023/09/02 12:41:13;;;;;;;;;;;34.00;37.90;;;;;;5030556;28;19917;-66
2023/09/02 12:43:38;;;;;;;;;;;34.10;38.00;;;;;;5030195;28;20353;-66
2023/09/02 12:46:04;;;;;;;;;;;34.30;37.80;;;;;;5030067;28;19920;-67
2023/09/02 12:48:29;;;;;;;;;;;34.40;37.80;;;;;;5030241;28;19918;-66
2023/09/02 12:50:55;;;;;;;;;;;34.40;36.80;;;;;;5029870;28;19917;-66
2023/09/02 12:53:22;;;;;;;;;;;34.40;36.60;;;;;;5030115;28;20727;-67
2023/09/02 12:55:47;;;;;;;;;;;34.50;37.30;;;;;;5029803;28;19913;-66
2023/09/02 12:58:13;;;;;;;;;;;34.60;37.40;;;;;;5029849;28;20291;-66
2023/09/02 13:00:39;;;;;;;;;;;34.60;36.30;;;;;;5030124;28;19921;-66
2023/09/02 13:03:04;;;;;;;;;;;34.50;36.30;;;;;;5030064;28;19921;-66
2023/09/02 13:05:30;;;;;;;;;;;34.50;36.30;;;;;;5031353;28;19963;-65
2023/09/02 13:07:55;;;;;;;;;;;34.50;36.50;;;;;;5033979;28;19910;-66
2023/09/02 13:10:21;;;;;;;;;;;34.40;36.00;;;;;;5033890;28;19924;-66
2023/09/02 13:12:47;;;;;;;;;;;34.30;36.30;;;;;;5033832;28;19920;-65
2023/09/02 13:15:13;;;;;;;;;;;34.20;36.60;;;;;;5032669;28;19909;-65
2023/09/02 13:17:39;;;;;;;;;;;34.10;36.70;;;;;;5033718;28;20361;-66
2023/09/02 13:20:05;;;;;;;;;;;34.00;37.00;;;;;;5034429;28;19917;-66
2023/09/02 13:22:30;;;;;;;;;;;34.10;37.30;;;;;;5033640;28;19909;-66
2023/09/02 13:24:56;;;;;;;;;;;34.20;37.20;;;;;;5034028;28;19917;-65
2023/09/02 13:27:23;;;;;;;;;;;34.10;37.10;;;;;;5033651;28;19909;-66
2023/09/02 13:29:49;;;;;;;;;;;34.10;37.10;;;;;;5034044;28;20011;-67
2023/09/02 13:32:17;;;;;;;;;;;34.20;37.20;;;;;;5033547;28;20063;-67
2023/09/02 13:34:43;;;;;;;;;;;34.30;36.70;;;;;;5033579;28;19975;-67
2023/09/02 13:37:17;;;;;;;;;;;34.50;36.60;;;;;;5033966;28;20008;-67
2023/09/02 13:39:45;;;;;;;;;;;34.70;36.70;;;;;;5034020;28;19917;-67
2023/09/02 13:42:17;;;;;;;;;;;34.70;36.20;;;;;;5033810;28;19916;-67
2023/09/02 13:44:43;;;;;;;;;;;34.70;36.10;;;;;;5034061;28;20014;-68
2023/09/02 13:47:09;;;;;;;;;;;34.60;35.90;;;;;;5033874;28;19964;-67
2023/09/02 13:49:34;;;;;;;;;;;34.50;35.80;;;;;;5033441;28;19921;-67
2023/09/02 13:52:00;;;;;;;;;;;34.30;35.80;;;;;;5033584;28;19928;-68
2023/09/02 13:54:26;;;;;;;;;;;34.30;36.10;;;;;;5033566;28;19917;-67
2023/09/02 13:56:52;;;;;;;;;;;34.30;35.90;;;;;;5033615;28;19916;-67
2023/09/02 13:59:17;;;;;;;;;;;34.30;35.60;;;;;;5033577;28;19917;-67
2023/09/02 14:01:43;;;;;;;;;;;34.20;35.70;;;;;;5031992;28;19924;-67
2023/09/02 14:04:09;;;;;;;;;;;34.20;36.10;;;;;;5033142;28;19917;-67
2023/09/02 14:06:34;;;;;;;;;;;34.20;36.10;;;;;;5032996;28;19909;-68
2023/09/02 14:09:00;;;;;;;;;;;34.20;35.40;;;;;;5033134;28;19971;-67
2023/09/02 14:11:26;;;;;;;;;;;33.90;35.20;;;;;;5033023;28;19917;-67
2023/09/02 14:13:52;;;;;;;;;;;33.70;35.10;;;;;;5033133;28;19967;-67